Time;durP1;ratioP1;P1;durP2;ratioP2;P2;SDS_P1;SDS_P2;PMS_P1;PMS_P2;Temp;Humidity;BMP_temperature;BMP_pressure;BME280_temperature;BME280_humidity;BME280_pressure;Samples;Min_cycle;Max_cycle;Signal;HPM_P1;HPM_P2
2023/10/23 00:00:47;;;;;;;4.93;3.07;;;7.80;99.90;;;;;;4988850;28;20022;-83
2023/10/23 00:03:12;;;;;;;4.53;3.00;;;7.80;99.90;;;;;;4990246;28;20049;-84
2023/10/23 00:05:38;;;;;;;7.93;2.80;;;7.80;99.90;;;;;;4989901;28;20018;-83
2023/10/23 00:08:04;;;;;;;5.53;2.90;;;7.80;99.90;;;;;;4987832;28;20022;-83
2023/10/23 00:10:29;;;;;;;5.90;2.70;;;7.90;99.90;;;;;;4990290;28;20030;-83
2023/10/23 00:12:55;;;;;;;3.60;2.40;;;7.80;99.90;;;;;;4989298;28;20841;-83
2023/10/23 00:15:20;;;;;;;3.63;2.27;;;7.90;99.90;;;;;;4989035;28;20157;-83
2023/10/23 00:17:46;;;;;;;6.50;2.80;;;7.90;99.90;;;;;;4989772;28;20023;-83
2023/10/23 00:20:12;;;;;;;5.73;2.57;;;7.90;99.90;;;;;;4989479;28;20037;-83
2023/10/23 00:22:38;;;;;;;4.77;2.43;;;7.90;99.90;;;;;;4989271;28;20037;-83
2023/10/23 00:25:04;;;;;;;5.93;2.60;;;7.90;99.90;;;;;;4988703;28;20061;-83
2023/10/23 00:27:29;;;;;;;4.93;2.70;;;7.90;99.90;;;;;;4988905;28;20144;-83
2023/10/23 00:29:55;;;;;;;7.50;2.47;;;7.80;99.90;;;;;;4987510;28;20026;-83
2023/10/23 00:32:20;;;;;;;5.43;2.80;;;7.80;99.90;;;;;;4988622;28;20026;-83
2023/10/23 00:34:46;;;;;;;4.43;2.90;;;7.80;99.90;;;;;;4987492;28;21474;-83
2023/10/23 00:37:12;;;;;;;8.93;3.00;;;7.80;99.90;;;;;;4987052;28;20027;-83
2023/10/23 00:39:38;;;;;;;14.47;4.70;;;7.70;99.90;;;;;;4987869;28;20058;-84
2023/10/23 00:42:04;;;;;;;5.97;2.77;;;7.70;99.90;;;;;;4989273;28;20092;-83
2023/10/23 00:44:30;;;;;;;6.23;2.70;;;7.70;99.90;;;;;;4986210;28;20018;-83
2023/10/23 00:46:56;;;;;;;4.10;2.60;;;7.70;99.90;;;;;;4988342;28;21485;-84
2023/10/23 00:49:21;;;;;;;4.27;2.97;;;7.70;99.90;;;;;;4989046;28;20502;-83
2023/10/23 00:51:47;;;;;;;6.90;3.77;;;7.70;99.90;;;;;;4989363;28;20022;-83
2023/10/23 00:54:14;;;;;;;5.10;2.70;;;7.70;99.90;;;;;;4987676;28;20030;-83
2023/10/23 00:56:39;;;;;;;6.00;2.70;;;7.70;99.90;;;;;;4989425;28;20030;-83
2023/10/23 00:59:06;;;;;;;5.20;2.87;;;7.70;99.90;;;;;;4989314;28;20043;-83
2023/10/23 01:01:33;;;;;;;5.03;2.93;;;7.70;99.90;;;;;;4989521;28;20502;-83
2023/10/23 01:04:00;;;;;;;4.10;2.60;;;7.70;99.90;;;;;;4989758;28;20030;-83
2023/10/23 01:06:26;;;;;;;6.27;2.93;;;7.70;99.90;;;;;;4990757;28;20398;-83
2023/10/23 01:08:52;;;;;;;5.20;2.90;;;7.70;99.90;;;;;;4990615;28;20093;-83
2023/10/23 01:11:17;;;;;;;7.83;2.70;;;7.70;99.90;;;;;;4990254;28;20243;-84
2023/10/23 01:13:43;;;;;;;5.40;2.57;;;7.70;99.90;;;;;;4990084;28;20114;-83
2023/10/23 01:16:08;;;;;;;5.70;2.93;;;7.60;99.90;;;;;;4990194;28;20030;-83
2023/10/23 01:18:34;;;;;;;3.93;2.63;;;7.60;99.90;;;;;;4989213;28;20042;-83
2023/10/23 01:20:59;;;;;;;4.47;3.00;;;7.60;99.90;;;;;;4990526;28;20026;-83
2023/10/23 01:23:28;;;;;;;3.60;2.30;;;7.60;99.90;;;;;;4989820;28;20045;-83
2023/10/23 01:25:53;;;;;;;5.47;2.93;;;7.60;99.90;;;;;;4990135;28;20035;-83
2023/10/23 01:28:19;;;;;;;5.70;2.60;;;7.60;99.90;;;;;;4991492;28;20045;-83
2023/10/23 01:30:45;;;;;;;4.27;2.40;;;7.60;99.90;;;;;;4996202;28;21083;-83
2023/10/23 01:33:11;;;;;;;4.80;2.67;;;7.60;99.90;;;;;;4997099;28;20034;-83
2023/10/23 01:35:37;;;;;;;4.80;2.60;;;7.50;99.90;;;;;;4992006;28;20042;-83
2023/10/23 01:38:02;;;;;;;5.00;2.70;;;7.50;99.90;;;;;;4994377;28;20037;-83
2023/10/23 01:40:28;;;;;;;5.67;2.60;;;7.50;99.90;;;;;;4992406;28;20018;-83
2023/10/23 01:42:54;;;;;;;5.20;2.53;;;7.50;99.90;;;;;;4993775;28;20041;-83
2023/10/23 01:45:19;;;;;;;4.10;2.70;;;7.50;99.90;;;;;;5004809;28;20027;-83
2023/10/23 01:47:45;;;;;;;3.87;2.37;;;7.50;99.90;;;;;;5015558;28;20081;-82
2023/10/23 01:50:11;;;;;;;5.10;2.47;;;7.50;99.90;;;;;;5010466;28;20054;-83
2023/10/23 01:52:37;;;;;;;5.13;3.00;;;7.50;99.90;;;;;;4991999;28;20031;-83
2023/10/23 01:55:03;;;;;;;5.10;2.97;;;7.50;99.90;;;;;;4989292;28;20026;-83
2023/10/23 01:57:29;;;;;;;3.77;2.50;;;7.50;99.90;;;;;;4989668;28;20034;-83
2023/10/23 01:59:55;;;;;;;3.23;2.50;;;7.50;99.90;;;;;;4990245;28;20057;-83
2023/10/23 02:02:21;;;;;;;4.83;2.90;;;7.50;99.90;;;;;;4990876;28;20034;-83
2023/10/23 02:04:47;;;;;;;5.50;2.90;;;7.40;99.90;;;;;;4989498;28;20457;-83
2023/10/23 02:07:12;;;;;;;5.23;2.97;;;7.40;99.90;;;;;;4991121;28;20054;-83
2023/10/23 02:09:38;;;;;;;3.93;2.50;;;7.40;99.90;;;;;;4990305;28;20477;-83
2023/10/23 02:12:04;;;;;;;5.43;2.60;;;7.40;99.90;;;;;;4988069;28;20030;-83
2023/10/23 02:14:30;;;;;;;3.93;2.50;;;7.40;99.90;;;;;;4986394;28;20639;-83
2023/10/23 02:16:56;;;;;;;6.37;2.67;;;7.30;99.90;;;;;;4988394;28;20022;-83
2023/10/23 02:19:21;;;;;;;4.83;2.90;;;7.30;99.90;;;;;;4986517;28;20022;-83
2023/10/23 02:21:50;;;;;;;4.10;2.97;;;7.30;99.90;;;;;;4987562;28;20038;-83
2023/10/23 02:24:16;;;;;;;5.53;3.07;;;7.30;99.90;;;;;;4987508;28;20025;-83
2023/10/23 02:26:42;;;;;;;4.33;2.40;;;7.30;99.90;;;;;;4987400;28;20084;-83
2023/10/23 02:29:08;;;;;;;6.30;2.57;;;7.20;99.90;;;;;;4987180;28;20034;-83
2023/10/23 02:31:36;;;;;;;5.53;2.40;;;7.20;99.90;;;;;;4987574;28;20033;-83
2023/10/23 02:34:02;;;;;;;5.17;2.67;;;7.20;99.90;;;;;;4987681;28;20026;-83
2023/10/23 02:36:28;;;;;;;4.00;2.53;;;7.20;99.90;;;;;;4986065;28;20029;-83
2023/10/23 02:38:53;;;;;;;4.33;2.70;;;7.20;99.90;;;;;;4987478;28;20029;-83
2023/10/23 02:41:19;;;;;;;4.50;3.07;;;7.20;99.90;;;;;;4988548;28;20112;-83
2023/10/23 02:43:45;;;;;;;4.23;2.50;;;7.10;99.90;;;;;;4987323;28;20034;-84
2023/10/23 02:46:11;;;;;;;3.80;2.60;;;7.20;99.90;;;;;;4986814;28;20026;-83
2023/10/23 02:48:37;;;;;;;3.43;2.43;;;7.20;99.90;;;;;;4987670;28;21089;-83
2023/10/23 02:51:03;;;;;;;4.90;2.37;;;7.10;99.90;;;;;;4988504;28;20113;-83
2023/10/23 02:53:30;;;;;;;3.60;2.77;;;7.10;99.90;;;;;;4987395;28;20156;-83
2023/10/23 02:55:55;;;;;;;4.20;2.60;;;7.00;99.90;;;;;;4988290;28;20026;-83
2023/10/23 02:58:21;;;;;;;4.43;2.67;;;7.00;99.90;;;;;;4986675;28;20030;-83
2023/10/23 03:00:46;;;;;;;4.57;2.57;;;6.90;99.90;;;;;;4988455;28;20030;-83
2023/10/23 03:03:12;;;;;;;6.37;2.97;;;6.90;99.90;;;;;;4987422;28;20096;-83
2023/10/23 03:05:38;;;;;;;3.30;2.47;;;6.90;99.90;;;;;;4989048;28;20038;-83
2023/10/23 03:08:04;;;;;;;3.70;2.33;;;6.90;99.90;;;;;;4994439;28;20489;-83
2023/10/23 03:10:31;;;;;;;4.70;2.50;;;6.80;99.90;;;;;;4995747;28;20041;-84
2023/10/23 03:12:56;;;;;;;4.93;2.67;;;6.80;99.90;;;;;;4994320;28;20044;-84
2023/10/23 03:15:22;;;;;;;7.40;2.90;;;6.70;99.90;;;;;;4994860;28;20034;-83
2023/10/23 03:17:49;;;;;;;4.33;2.40;;;6.70;99.90;;;;;;4994372;28;20049;-83
2023/10/23 03:20:14;;;;;;;4.17;2.60;;;6.70;99.90;;;;;;5000207;28;20038;-83
2023/10/23 03:22:40;;;;;;;3.73;2.80;;;6.70;99.90;;;;;;4998150;28;20034;-84
2023/10/23 03:25:07;;;;;;;6.27;2.73;;;6.70;99.90;;;;;;4993902;28;20022;-83
2023/10/23 03:27:33;;;;;;;6.53;3.07;;;6.60;99.90;;;;;;4994507;28;20049;-83
2023/10/23 03:29:59;;;;;;;6.03;2.70;;;6.60;99.90;;;;;;4994068;28;20022;-84
2023/10/23 03:32:24;;;;;;;7.27;2.93;;;6.60;99.90;;;;;;4994605;28;20038;-83
2023/10/23 03:34:50;;;;;;;4.33;2.80;;;6.60;99.90;;;;;;4991255;28;20038;-83
2023/10/23 03:37:16;;;;;;;5.93;2.73;;;6.60;99.90;;;;;;4993487;28;20127;-84
2023/10/23 03:39:42;;;;;;;6.10;2.83;;;6.60;99.90;;;;;;4993407;28;20030;-83
2023/10/23 03:42:08;;;;;;;8.93;2.80;;;6.50;99.90;;;;;;4994183;28;20108;-83
2023/10/23 03:44:34;;;;;;;6.23;2.83;;;6.40;99.90;;;;;;4992567;28;20023;-83
2023/10/23 03:47:00;;;;;;;7.27;2.70;;;6.40;99.90;;;;;;4994039;28;20041;-83
2023/10/23 03:49:30;;;;;;;4.37;3.00;;;6.40;99.90;;;;;;4994043;28;20026;-84
2023/10/23 03:51:56;;;;;;;4.30;2.83;;;6.40;99.90;;;;;;4993802;28;20049;-83
2023/10/23 03:54:21;;;;;;;6.87;2.80;;;6.30;99.90;;;;;;4995507;28;20396;-83
2023/10/23 03:56:47;;;;;;;4.73;2.87;;;6.30;99.90;;;;;;4996321;28;20037;-83
2023/10/23 03:59:13;;;;;;;5.23;2.80;;;6.30;99.90;;;;;;4996905;28;20034;-83
2023/10/23 04:01:38;;;;;;;5.93;3.00;;;6.30;99.90;;;;;;4996096;28;20649;-83
2023/10/23 04:04:04;;;;;;;4.83;3.00;;;6.30;99.90;;;;;;4997295;28;20037;-84
2023/10/23 04:06:29;;;;;;;5.43;3.00;;;6.20;99.90;;;;;;4995778;28;20029;-83
2023/10/23 04:08:55;;;;;;;4.33;2.90;;;6.20;99.90;;;;;;4994691;28;20080;-83
2023/10/23 04:11:21;;;;;;;5.10;2.80;;;6.20;99.90;;;;;;4994413;28;20103;-83
2023/10/23 04:13:46;;;;;;;7.33;2.97;;;6.20;99.90;;;;;;4997356;28;20086;-83
2023/10/23 04:16:12;;;;;;;6.23;2.83;;;6.20;99.90;;;;;;4993968;28;20034;-83
2023/10/23 04:18:38;;;;;;;8.13;3.10;;;6.20;99.90;;;;;;4993014;28;20026;-83
2023/10/23 04:21:09;;;;;;;5.67;3.37;;;6.10;99.90;;;;;;4993085;28;20026;-83
2023/10/23 04:23:36;;;;;;;5.30;3.13;;;6.10;99.90;;;;;;4989289;28;20470;-83
2023/10/23 04:26:02;;;;;;;7.90;3.57;;;6.10;99.90;;;;;;4988723;28;20037;-83
2023/10/23 04:28:28;;;;;;;5.23;3.60;;;6.10;99.90;;;;;;4990595;28;20038;-83
2023/10/23 04:30:55;;;;;;;6.10;3.43;;;6.10;99.90;;;;;;4988638;28;20165;-83
2023/10/23 04:33:21;;;;;;;6.90;3.60;;;6.00;99.90;;;;;;4989999;28;20657;-83
2023/10/23 04:35:55;;;;;;;14.90;10.37;;;5.90;99.90;;;;;;4991060;28;20045;-83
2023/10/23 04:38:21;;;;;;;31.13;23.90;;;5.90;99.90;;;;;;4985370;28;20034;-82
2023/10/23 04:40:46;;;;;;;34.93;25.13;;;5.90;99.90;;;;;;4988584;28;20068;-83
2023/10/23 04:43:12;;;;;;;33.07;22.20;;;5.90;99.90;;;;;;4994002;28;20026;-83
2023/10/23 04:45:39;;;;;;;22.27;13.30;;;5.80;99.90;;;;;;4997731;28;20026;-82
2023/10/23 04:48:07;;;;;;;10.97;6.80;;;5.80;99.90;;;;;;5007541;28;20057;-83
2023/10/23 04:50:34;;;;;;;6.70;4.40;;;5.80;99.90;;;;;;4988732;28;20045;-81
2023/10/23 04:53:00;;;;;;;10.40;4.50;;;5.80;99.90;;;;;;4987108;28;20026;-81
2023/10/23 04:55:30;;;;;;;7.00;4.20;;;5.80;99.90;;;;;;4986971;28;20084;-82
2023/10/23 04:57:56;;;;;;;10.20;4.27;;;5.80;99.90;;;;;;4988285;28;20820;-82
2023/10/23 05:00:21;;;;;;;8.33;4.90;;;5.70;99.90;;;;;;4984692;28;20029;-82
2023/10/23 05:02:47;;;;;;;7.30;5.40;;;5.70;99.90;;;;;;4987348;28;20046;-82
2023/10/23 05:05:14;;;;;;;8.23;4.53;;;5.70;99.90;;;;;;4988014;28;20029;-82
2023/10/23 05:07:39;;;;;;;6.10;4.23;;;5.70;99.90;;;;;;4991080;28;20026;-81
2023/10/23 05:10:09;;;;;;;5.57;4.37;;;5.70;99.90;;;;;;4995562;28;20038;-81
2023/10/23 05:12:38;;;;;;;7.87;5.33;;;5.70;99.90;;;;;;4995932;28;20045;-82
2023/10/23 05:15:04;;;;;;;9.90;5.97;;;5.70;99.90;;;;;;4985334;28;20045;-84
2023/10/23 05:17:29;;;;;;;10.83;5.93;;;5.70;99.90;;;;;;4989148;28;20125;-82
2023/10/23 05:19:55;;;;;;;10.57;6.77;;;5.60;99.90;;;;;;4987737;28;20168;-83
2023/10/23 05:22:20;;;;;;;13.43;6.30;;;5.70;99.90;;;;;;4982578;28;20086;-82
2023/10/23 05:24:47;;;;;;;9.00;5.30;;;5.70;99.90;;;;;;4987135;28;20030;-85
2023/10/23 05:27:13;;;;;;;10.40;5.30;;;5.70;99.90;;;;;;4987611;28;20032;-82
2023/10/23 05:29:39;;;;;;;7.83;5.40;;;5.70;99.90;;;;;;4986981;28;20046;-83
2023/10/23 05:32:05;;;;;;;11.60;4.90;;;5.70;99.90;;;;;;4968608;28;20061;-83
2023/10/23 05:34:30;;;;;;;7.63;4.73;;;5.70;99.90;;;;;;4987886;28;20049;-83
2023/10/23 05:36:56;;;;;;;8.50;4.47;;;5.80;99.90;;;;;;4987168;28;20053;-82
2023/10/23 05:39:21;;;;;;;7.30;5.03;;;5.80;99.90;;;;;;4987476;28;20038;-82
2023/10/23 05:41:47;;;;;;;6.50;4.97;;;5.80;99.90;;;;;;4987924;28;20046;-83
2023/10/23 05:44:12;;;;;;;9.00;4.47;;;5.80;99.90;;;;;;4984270;28;20019;-83
2023/10/23 05:46:38;;;;;;;7.20;4.10;;;5.80;99.90;;;;;;4986129;28;20099;-82
2023/10/23 05:49:03;;;;;;;5.43;3.50;;;5.80;99.90;;;;;;4987139;28;20041;-83
2023/10/23 05:51:29;;;;;;;9.30;4.00;;;5.80;99.90;;;;;;4987632;28;20022;-82
2023/10/23 05:53:56;;;;;;;6.17;3.73;;;5.80;99.90;;;;;;4985141;28;20084;-82
2023/10/23 05:56:22;;;;;;;8.07;4.23;;;5.80;99.90;;;;;;4985413;28;20100;-82
2023/10/23 05:58:50;;;;;;;11.70;4.77;;;5.80;99.90;;;;;;4986994;28;20478;-82
2023/10/23 06:01:16;;;;;;;7.33;4.70;;;5.70;99.90;;;;;;4987031;28;20445;-82
2023/10/23 06:03:42;;;;;;;8.43;4.63;;;5.70;99.90;;;;;;4987186;28;20034;-82
2023/10/23 06:06:08;;;;;;;13.00;5.20;;;5.80;99.90;;;;;;4983957;28;20089;-82
2023/10/23 06:08:34;;;;;;;8.63;4.80;;;5.70;99.90;;;;;;4985136;28;20038;-82
2023/10/23 06:11:00;;;;;;;7.43;5.40;;;5.70;99.90;;;;;;4981324;28;20034;-82
2023/10/23 06:13:25;;;;;;;9.17;5.30;;;5.80;99.90;;;;;;4982560;28;20022;-82
2023/10/23 06:15:51;;;;;;;10.33;4.50;;;5.80;99.90;;;;;;4984004;28;20030;-82
2023/10/23 06:18:17;;;;;;;7.03;4.53;;;5.80;99.90;;;;;;4984278;28;20053;-82
2023/10/23 06:20:44;;;;;;;12.33;5.27;;;5.80;99.90;;;;;;4966237;28;20177;-81
2023/10/23 06:23:09;;;;;;;10.40;4.53;;;5.80;99.90;;;;;;4984011;28;20050;-81
2023/10/23 06:25:35;;;;;;;9.03;4.20;;;5.80;99.90;;;;;;4983237;28;20046;-81
2023/10/23 06:28:03;;;;;;;8.43;4.37;;;5.80;99.90;;;;;;4985131;28;20034;-81
2023/10/23 06:30:29;;;;;;;6.30;4.10;;;5.80;99.90;;;;;;4986149;28;20042;-81
2023/10/23 06:32:54;;;;;;;8.03;4.47;;;5.80;99.90;;;;;;4986570;28;20062;-81
2023/10/23 06:35:20;;;;;;;10.63;4.50;;;5.90;99.90;;;;;;4983253;28;20026;-81
2023/10/23 06:37:47;;;;;;;9.43;4.83;;;5.90;99.90;;;;;;4985724;28;20498;-81
2023/10/23 06:40:12;;;;;;;10.23;7.50;;;5.90;99.90;;;;;;4981049;28;20505;-84
2023/10/23 06:42:38;;;;;;;11.43;6.23;;;6.00;99.90;;;;;;4986159;28;20030;-85
2023/10/23 06:45:04;;;;;;;7.50;4.70;;;6.00;99.90;;;;;;4981904;28;20053;-85
2023/10/23 06:47:30;;;;;;;7.73;4.13;;;6.00;99.90;;;;;;4981128;28;20038;-82
2023/10/23 06:49:56;;;;;;;6.53;4.10;;;6.10;99.90;;;;;;4982373;28;20022;-82
2023/10/23 06:52:25;;;;;;;9.70;4.80;;;6.10;99.90;;;;;;4985485;28;20449;-83
2023/10/23 06:54:50;;;;;;;5.57;4.10;;;6.10;99.90;;;;;;4983116;28;20310;-82
2023/10/23 06:57:16;;;;;;;13.10;3.93;;;6.10;99.90;;;;;;4982348;28;20763;-82
2023/10/23 06:59:41;;;;;;;9.33;4.83;;;6.10;99.90;;;;;;4986878;28;20798;-83
2023/10/23 07:02:09;;;;;;;9.47;4.03;;;6.10;99.90;;;;;;4984899;28;20084;-83
2023/10/23 07:04:34;;;;;;;12.27;4.93;;;6.10;99.90;;;;;;4983178;28;20038;-83
2023/10/23 07:07:00;;;;;;;9.27;4.10;;;6.20;99.90;;;;;;4983381;28;20077;-82
2023/10/23 07:09:25;;;;;;;13.10;4.73;;;6.20;99.90;;;;;;4984951;28;20398;-82
2023/10/23 07:11:51;;;;;;;12.70;4.23;;;6.30;99.90;;;;;;4967896;28;20034;-82
2023/10/23 07:14:17;;;;;;;10.27;4.70;;;6.40;99.90;;;;;;4982907;28;20052;-85
2023/10/23 07:16:45;;;;;;;9.07;4.97;;;6.50;99.90;;;;;;4980537;28;20409;-86
2023/10/23 07:19:11;;;;;;;11.60;4.80;;;6.60;99.90;;;;;;4982318;28;20461;-85
2023/10/23 07:21:37;;;;;;;12.40;4.57;;;6.70;99.90;;;;;;4975152;28;21526;-85
2023/10/23 07:24:03;;;;;;;10.87;4.57;;;6.70;99.90;;;;;;4977407;28;20048;-84
2023/10/23 07:26:28;;;;;;;11.57;4.97;;;6.80;99.90;;;;;;4981868;28;20029;-84
2023/10/23 07:28:54;;;;;;;11.43;4.83;;;6.90;99.90;;;;;;4982256;28;20061;-85
2023/10/23 07:31:20;;;;;;;16.07;6.17;;;7.00;99.90;;;;;;4983735;28;20019;-85
2023/10/23 07:33:45;;;;;;;9.70;5.07;;;7.10;99.90;;;;;;4978483;28;20088;-85
2023/10/23 07:36:12;;;;;;;10.37;5.40;;;7.20;99.90;;;;;;4978239;28;20085;-85
2023/10/23 07:38:42;;;;;;;15.10;6.70;;;7.40;99.90;;;;;;4985051;28;20856;-85
2023/10/23 07:41:09;;;;;;;20.73;7.23;;;7.50;99.90;;;;;;4996833;28;20030;-85
2023/10/23 07:43:34;;;;;;;20.63;6.73;;;7.70;99.90;;;;;;5012212;28;20027;-86
2023/10/23 07:46:08;;;;;;;30.37;8.00;;;7.90;99.90;;;;;;5009380;28;20031;-84
2023/10/23 07:48:34;;;;;;;15.50;6.90;;;8.10;99.90;;;;;;4986190;28;20119;-85
2023/10/23 07:51:03;;;;;;;20.83;8.00;;;8.30;99.90;;;;;;4982139;28;20877;-85
2023/10/23 07:53:32;;;;;;;12.83;6.70;;;8.40;99.90;;;;;;4982257;28;20046;-85
2023/10/23 07:56:04;;;;;;;13.93;6.63;;;8.60;99.90;;;;;;4986147;28;20474;-85
2023/10/23 07:58:29;;;;;;;11.80;6.17;;;8.70;99.90;;;;;;4984956;28;20090;-85
2023/10/23 08:01:06;;;;;;;16.70;6.40;;;8.80;99.90;;;;;;4982549;28;20117;-85
2023/10/23 08:03:33;;;;;;;12.33;6.43;;;8.90;99.90;;;;;;4985716;28;20038;-85
2023/10/23 08:06:00;;;;;;;13.83;6.70;;;9.10;99.90;;;;;;4985340;28;20034;-85
2023/10/23 08:08:25;;;;;;;11.53;6.30;;;9.20;99.90;;;;;;4987325;28;20027;-86
2023/10/23 08:10:51;;;;;;;12.00;6.07;;;9.40;99.90;;;;;;4987230;28;20041;-86
2023/10/23 08:13:16;;;;;;;12.60;5.27;;;9.70;99.90;;;;;;4984644;28;20034;-85
2023/10/23 08:15:43;;;;;;;14.23;5.07;;;9.90;99.90;;;;;;4990803;28;20100;-85
2023/10/23 08:18:08;;;;;;;8.70;4.30;;;10.10;99.90;;;;;;4988551;28;20101;-86
2023/10/23 08:20:36;;;;;;;11.87;5.13;;;10.30;99.90;;;;;;4985954;28;20137;-85
2023/10/23 08:23:02;;;;;;;13.43;4.97;;;10.50;99.90;;;;;;4983378;28;20070;-85
2023/10/23 08:25:28;;;;;;;15.20;5.30;;;10.60;99.90;;;;;;4984972;28;20169;-85
2023/10/23 08:27:53;;;;;;;9.57;4.30;;;10.70;99.90;;;;;;4985192;28;20057;-85
2023/10/23 08:30:19;;;;;;;16.35;4.80;;;10.80;99.90;;;;;;4983967;28;20061;-85
2023/10/23 08:32:44;;;;;;;14.55;4.75;;;10.90;99.90;;;;;;4984645;28;20109;-86
2023/10/23 08:35:10;;;;;;;8.05;3.88;;;11.10;99.90;;;;;;4983362;28;20022;-86
2023/10/23 08:37:36;;;;;;;9.68;3.97;;;11.30;99.90;;;;;;4986139;28;20037;-86
2023/10/23 08:40:06;;;;;;;7.22;3.85;;;11.60;99.90;;;;;;4986698;28;20072;-86
2023/10/23 08:42:33;;;;;;;7.22;3.80;;;11.90;99.90;;;;;;4988824;28;20034;-86
2023/10/23 08:44:59;;;;;;;7.13;2.45;;;12.10;99.90;;;;;;4989664;28;20026;-86
2023/10/23 08:47:25;;;;;;;3.45;2.03;;;12.30;99.90;;;;;;4985537;28;20031;-86
2023/10/23 08:49:52;;;;;;;3.45;2.00;;;12.40;99.90;;;;;;4984671;28;20678;-86
2023/10/23 08:52:24;;;;;;;5.13;2.30;;;12.60;99.90;;;;;;4984929;28;20030;-86
2023/10/23 08:54:52;;;;;;;2.65;1.35;;;12.80;99.90;;;;;;4983469;28;20031;-86
2023/10/23 08:57:21;;;;;;;3.75;1.85;;;12.90;99.90;;;;;;4985102;28;20030;-86
2023/10/23 08:59:47;;;;;;;2.55;1.67;;;13.00;99.90;;;;;;4983335;28;20053;-86
2023/10/23 09:02:13;;;;;;;5.28;2.13;;;13.10;99.90;;;;;;4983892;28;20042;-87
2023/10/23 09:04:39;;;;;;;5.13;2.00;;;13.20;99.90;;;;;;4981161;28;20034;-87
2023/10/23 09:07:04;;;;;;;7.35;2.38;;;13.20;99.90;;;;;;4984740;28;20901;-86
2023/10/23 09:09:30;;;;;;;3.08;1.45;;;13.30;99.90;;;;;;4983416;28;20643;-86
2023/10/23 09:11:56;;;;;;;8.40;4.40;;;13.40;99.90;;;;;;4983328;28;20034;-86
2023/10/23 09:14:26;;;;;;;5.88;3.13;;;13.50;99.90;;;;;;4984071;28;20026;-86
2023/10/23 09:16:53;;;;;;;2.85;1.63;;;13.60;99.90;;;;;;4984122;28;20114;-87
2023/10/23 09:19:37;;;;;;;6.20;2.10;;;13.70;99.90;;;;;;4984518;28;20058;-87
2023/10/23 09:22:04;;;;;;;4.70;2.28;;;13.80;99.90;;;;;;4984008;28;20420;-86
2023/10/23 09:24:30;;;;;;;3.25;1.48;;;13.80;99.90;;;;;;4982395;28;20484;-87
2023/10/23 09:26:56;;;;;;;2.83;1.65;;;13.90;99.90;;;;;;4983974;28;20109;-86
2023/10/23 09:29:26;;;;;;;3.95;1.65;;;14.10;99.90;;;;;;4983323;28;20115;-86
2023/10/23 09:31:53;;;;;;;5.18;1.55;;;14.20;99.90;;;;;;4977788;28;20112;-86
2023/10/23 09:34:20;;;;;;;3.30;1.30;;;14.30;99.90;;;;;;4983098;28;21073;-86
2023/10/23 09:36:50;;;;;;;4.90;1.60;;;14.40;99.90;;;;;;4983528;28;20061;-86
2023/10/23 09:39:17;;;;;;;5.22;1.73;;;14.50;99.90;;;;;;4976358;28;21603;-86
2023/10/23 09:41:44;;;;;;;3.40;1.40;;;14.60;99.90;;;;;;4976522;28;20038;-86
2023/10/23 09:44:13;;;;;;;5.78;1.95;;;14.60;99.90;;;;;;4977073;28;20029;-86
2023/10/23 09:46:39;;;;;;;3.92;1.90;;;14.70;99.90;;;;;;4977200;28;20164;-87
2023/10/23 09:49:06;;;;;;;4.82;1.65;;;14.70;99.90;;;;;;4974569;28;20034;-87
2023/10/23 09:51:39;;;;;;;4.15;1.52;;;14.70;99.90;;;;;;4976600;28;20034;-86
2023/10/23 09:54:12;;;;;;;2.67;1.27;;;14.80;99.90;;;;;;4977212;28;20129;-86
2023/10/23 09:56:39;;;;;;;3.58;1.33;;;14.80;99.90;;;;;;4976968;28;20163;-87
2023/10/23 09:59:07;;;;;;;3.17;1.27;;;14.80;99.90;;;;;;4976799;28;20034;-87
2023/10/23 10:01:41;;;;;;;2.35;1.20;;;14.80;99.90;;;;;;4976363;28;20136;-86
2023/10/23 10:04:17;;;;;;;6.03;1.52;;;14.80;99.90;;;;;;4976005;28;20042;-87
2023/10/23 10:06:47;;;;;;;2.20;1.40;;;14.80;99.90;;;;;;4976790;28;20675;-86
2023/10/23 10:09:14;;;;;;;2.80;1.50;;;14.80;99.90;;;;;;4975055;28;20966;-87
2023/10/23 10:11:44;;;;;;;4.05;1.38;;;14.80;99.90;;;;;;4977893;28;20038;-86
2023/10/23 10:14:14;;;;;;;4.47;1.33;;;14.80;99.90;;;;;;4978010;28;20034;-86
2023/10/23 10:16:40;;;;;;;4.68;1.20;;;14.90;99.90;;;;;;4973486;28;20084;-86
2023/10/23 10:19:07;;;;;;;3.25;1.17;;;14.90;99.90;;;;;;4975118;28;20117;-87
2023/10/23 10:21:45;;;;;;;2.95;1.17;;;15.00;99.90;;;;;;4978124;28;20045;-87
2023/10/23 10:24:13;;;;;;;2.22;1.40;;;15.00;99.90;;;;;;4979207;28;20038;-85
2023/10/23 10:26:39;;;;;;;2.53;1.50;;;15.10;99.90;;;;;;4976576;28;20535;-86
2023/10/23 10:29:04;;;;;;;4.32;1.30;;;15.20;99.90;;;;;;4975691;28;20033;-87
2023/10/23 10:32:06;;;;;;;5.18;1.35;;;15.20;99.90;;;;;;4981575;28;20049;-87
2023/10/23 10:34:34;;;;;;;2.92;1.20;;;15.30;99.90;;;;;;4987343;28;20026;-86
2023/10/23 10:37:01;;;;;;;2.53;1.30;;;15.40;99.90;;;;;;4991930;28;20442;-87
2023/10/23 10:39:46;;;;;;;2.22;0.90;;;15.50;99.90;;;;;;5016752;28;20018;-86
2023/10/23 10:42:18;;;;;;;2.88;1.20;;;15.60;99.90;;;;;;5023087;28;20022;-87
2023/10/23 10:44:54;;;;;;;6.65;1.45;;;15.60;99.90;;;;;;4989799;28;20038;-86
2023/10/23 10:47:21;;;;;;;4.13;1.10;;;15.60;99.90;;;;;;4984317;28;21312;-86
2023/10/23 10:49:47;;;;;;;3.80;1.30;;;15.50;99.90;;;;;;4982692;28;20030;-86
2023/10/23 10:52:37;;;;;;;2.00;1.00;;;15.50;99.90;;;;;;4982642;28;20074;-85
2023/10/23 10:55:09;;;;;;;3.35;1.48;;;15.50;99.90;;;;;;4974896;28;20044;-86
2023/10/23 10:57:39;;;;;;;1.60;1.10;;;15.40;99.90;;;;;;4981001;28;20038;-86
2023/10/23 11:00:05;;;;;;;3.50;1.33;;;15.30;99.90;;;;;;4983643;28;20029;-84
2023/10/23 11:02:31;;;;;;;3.47;1.30;;;15.20;99.90;;;;;;4982984;28;20041;-84
2023/10/23 11:04:56;;;;;;;3.53;1.40;;;15.20;99.90;;;;;;4981482;28;20408;-86
2023/10/23 11:07:26;;;;;;;1.90;1.20;;;15.10;99.90;;;;;;4982037;28;20635;-86
2023/10/23 11:09:53;;;;;;;3.78;1.20;;;15.10;99.90;;;;;;4982234;28;20073;-85
2023/10/23 11:12:19;;;;;;;2.22;1.20;;;15.10;99.90;;;;;;4982405;28;20038;-85
2023/10/23 11:14:46;;;;;;;2.67;1.20;;;15.10;99.90;;;;;;4981403;28;20813;-85
2023/10/23 11:17:13;;;;;;;5.47;1.20;;;15.10;99.90;;;;;;4975880;28;20081;-86
2023/10/23 11:19:41;;;;;;;5.57;1.35;;;15.10;99.90;;;;;;4976499;28;20121;-85
2023/10/23 11:22:11;;;;;;;4.00;1.50;;;15.20;99.90;;;;;;4977556;28;20037;-86
2023/10/23 11:24:37;;;;;;;5.43;1.60;;;15.30;99.90;;;;;;4976012;28;20145;-86
2023/10/23 11:27:07;;;;;;;4.72;1.50;;;15.40;99.90;;;;;;4976946;28;20042;-86
2023/10/23 11:29:45;;;;;;;5.40;1.50;;;15.50;99.90;;;;;;4984083;28;20105;-86
2023/10/23 11:32:12;;;;;;;2.25;1.40;;;15.60;99.90;;;;;;4981597;28;20088;-86
2023/10/23 11:34:39;;;;;;;4.57;1.20;;;15.70;99.90;;;;;;4978374;28;20113;-87
2023/10/23 11:37:05;;;;;;;4.63;1.35;;;15.70;99.90;;;;;;4981101;28;20081;-87
2023/10/23 11:39:32;;;;;;;2.42;1.33;;;15.70;99.90;;;;;;4980919;28;20128;-86
2023/10/23 11:41:59;;;;;;;3.88;1.75;;;15.70;99.90;;;;;;4978814;28;20169;-86
2023/10/23 11:44:28;;;;;;;3.88;1.40;;;15.60;99.90;;;;;;4960952;28;20038;-86
2023/10/23 11:46:55;;;;;;;3.58;1.40;;;15.60;99.90;;;;;;4978161;28;20030;-86
2023/10/23 11:49:24;;;;;;;2.72;1.55;;;15.50;99.90;;;;;;4978413;28;20027;-86
2023/10/23 11:51:51;;;;;;;2.13;1.30;;;15.50;99.90;;;;;;4974639;28;20490;-86
2023/10/23 11:54:17;;;;;;;2.95;1.20;;;15.40;99.90;;;;;;4977626;28;20042;-85
2023/10/23 11:56:44;;;;;;;2.90;1.30;;;15.40;99.90;;;;;;4978333;28;20041;-86
2023/10/23 11:59:17;;;;;;;2.65;1.27;;;15.40;99.90;;;;;;4978874;28;20030;-85
2023/10/23 12:01:43;;;;;;;5.82;1.30;;;15.30;99.90;;;;;;4974702;28;20145;-86
2023/10/23 12:04:10;;;;;;;3.28;1.10;;;15.30;99.90;;;;;;4977577;28;21384;-85
2023/10/23 12:06:36;;;;;;;4.55;1.60;;;15.20;99.90;;;;;;4979488;28;20112;-86
2023/10/23 12:09:03;;;;;;;3.90;1.42;;;15.20;99.90;;;;;;4979836;28;20034;-86
2023/10/23 12:11:29;;;;;;;3.75;1.35;;;15.20;99.90;;;;;;4977597;28;20027;-87
2023/10/23 12:13:56;;;;;;;6.15;1.33;;;15.20;99.90;;;;;;4978586;28;20034;-86
2023/10/23 12:16:22;;;;;;;6.15;2.03;;;15.20;99.90;;;;;;4978669;28;20066;-86
2023/10/23 12:18:48;;;;;;;4.60;1.40;;;15.20;99.90;;;;;;4976746;28;21373;-85
2023/10/23 12:21:14;;;;;;;2.78;1.50;;;15.20;99.90;;;;;;4976050;28;20497;-86
2023/10/23 12:23:40;;;;;;;4.45;1.35;;;15.20;99.90;;;;;;4978313;28;20038;-86
2023/10/23 12:26:06;;;;;;;4.68;1.35;;;15.20;99.90;;;;;;4979038;28;20030;-86
2023/10/23 12:28:31;;;;;;;5.55;1.38;;;15.20;99.90;;;;;;4978666;28;20741;-86
2023/10/23 12:30:58;;;;;;;6.25;1.88;;;15.20;99.90;;;;;;4980770;28;21313;-85
2023/10/23 12:33:24;;;;;;;3.35;1.70;;;15.30;99.90;;;;;;4977600;28;20137;-85
2023/10/23 12:35:50;;;;;;;4.50;1.42;;;15.30;99.90;;;;;;4978107;28;20109;-85
2023/10/23 12:38:15;;;;;;;4.13;1.90;;;15.20;99.90;;;;;;4978514;28;20042;-84
2023/10/23 12:40:43;;;;;;;4.88;1.48;;;15.30;99.90;;;;;;4982461;28;21212;-85
2023/10/23 12:43:09;;;;;;;2.72;1.35;;;15.40;99.90;;;;;;4980749;28;20077;-85
2023/10/23 12:45:35;;;;;;;4.43;1.98;;;15.40;99.90;;;;;;4982584;28;20062;-85
2023/10/23 12:48:00;;;;;;;4.97;1.77;;;15.40;99.90;;;;;;4961238;28;20134;-86